createdAt,value
2018-05-13T00:00:44.974Z,15.66
2018-05-13T00:01:53.627Z,15.57
2018-05-13T00:03:02.276Z,15.55
2018-05-13T00:04:10.923Z,15.57
2018-05-13T00:05:19.888Z,15.55
2018-05-13T00:06:28.483Z,15.5
2018-05-13T00:07:37.135Z,15.5
2018-05-13T00:08:45.777Z,15.52
2018-05-13T00:09:54.423Z,15.52
2018-05-13T00:11:03.328Z,15.6
2018-05-13T00:12:11.971Z,15.51
2018-05-13T00:13:20.620Z,15.63
2018-05-13T00:14:29.269Z,15.54
2018-05-13T00:15:38.190Z,15.51
2018-05-13T00:16:46.826Z,15.47
2018-05-13T00:17:55.476Z,15.57
2018-05-13T00:19:04.126Z,15.5
2018-05-13T00:20:12.773Z,15.51
2018-05-13T00:21:21.416Z,15.52
2018-05-13T00:22:30.067Z,15.51
2018-05-13T00:23:38.781Z,15.51
2018-05-13T00:24:47.366Z,15.45
2018-05-13T00:25:56.002Z,15.43
2018-05-13T00:27:04.649Z,15.48
2018-05-13T00:28:13.294Z,15.47
2018-05-13T00:29:21.944Z,15.45
2018-05-13T00:30:30.592Z,15.47
2018-05-13T00:31:39.228Z,15.33
2018-05-13T00:32:47.880Z,15.37
2018-05-13T00:33:56.790Z,15.37
2018-05-13T00:35:05.711Z,15.33
2018-05-13T00:36:14.619Z,15.32
2018-05-13T00:37:23.271Z,15.36
2018-05-13T00:38:31.923Z,15.36
2018-05-13T00:39:40.624Z,15.32
2018-05-13T00:40:49.480Z,15.3
2018-05-13T00:41:58.131Z,15.26
2018-05-13T00:43:06.776Z,15.27
2018-05-13T00:44:15.435Z,15.35
2018-05-13T00:45:24.080Z,15.32
2018-05-13T00:46:32.722Z,15.27
2018-05-13T00:47:41.366Z,15.23
2018-05-13T00:48:50.013Z,15.25
2018-05-13T00:49:58.933Z,15.22
2018-05-13T00:51:07.580Z,15.23
2018-05-13T00:52:16.226Z,15.14
2018-05-13T00:53:24.863Z,15.11
2018-05-13T00:54:33.519Z,15.19
2018-05-13T00:55:42.159Z,15.07
2018-05-13T00:56:50.811Z,15.18
2018-05-13T00:57:59.448Z,15.14
2018-05-13T00:59:08.104Z,15.11
2018-05-13T01:00:16.748Z,15.11
2018-05-13T01:01:25.396Z,15.15
2018-05-13T01:02:34.032Z,15.17
2018-05-13T01:03:42.681Z,15.02
2018-05-13T01:04:51.602Z,15
2018-05-13T01:06:00.510Z,15.02
2018-05-13T01:07:09.160Z,15.04
2018-05-13T01:08:18.063Z,15.07
2018-05-13T01:09:26.718Z,14.99
2018-05-13T01:10:35.623Z,15.04
2018-05-13T01:11:44.277Z,15.02
2018-05-13T01:12:52.914Z,14.97
2018-05-13T01:14:01.832Z,14.92
2018-05-13T01:15:10.478Z,14.93
2018-05-13T01:16:19.131Z,14.9
2018-05-13T01:17:27.766Z,15.07
2018-05-13T01:18:36.487Z,14.9
2018-05-13T01:19:45.057Z,14.93
2018-05-13T01:20:53.714Z,14.9
2018-05-13T01:22:02.358Z,14.94
2018-05-13T01:23:11.002Z,15
2018-05-13T01:24:19.911Z,14.94
2018-05-13T01:25:28.551Z,15.04
2018-05-13T01:26:37.206Z,15.05
2018-05-13T01:27:45.849Z,15.05
2018-05-13T01:28:54.493Z,14.9
2018-05-13T01:30:03.145Z,14.94
2018-05-13T01:31:12.055Z,15.02
2018-05-13T01:32:20.701Z,14.94
2018-05-13T01:33:29.345Z,14.96
2018-05-13T01:34:38.006Z,14.99
2018-05-13T01:35:46.651Z,15.05
2018-05-13T01:36:55.558Z,15.05
2018-05-13T01:38:04.201Z,15.02
2018-05-13T01:39:13.121Z,15
2018-05-13T01:40:21.771Z,15
2018-05-13T01:41:30.411Z,14.97
2018-05-13T01:42:39.053Z,14.89
2018-05-13T01:43:47.697Z,14.92
2018-05-13T01:44:56.625Z,15.05
2018-05-13T01:46:05.272Z,14.97
2018-05-13T01:47:13.918Z,14.94
2018-05-13T01:48:22.560Z,14.9
2018-05-13T01:49:31.215Z,14.93
2018-05-13T01:50:39.862Z,14.99
2018-05-13T01:51:48.520Z,14.92
2018-05-13T01:52:57.418Z,14.87
2018-05-13T01:54:06.340Z,14.93
2018-05-13T01:55:14.983Z,14.89
2018-05-13T01:56:23.632Z,14.87
2018-05-13T01:57:32.273Z,14.87
2018-05-13T01:58:40.919Z,14.9
2018-05-13T01:59:49.565Z,14.85
2018-05-13T02:00:58.212Z,14.87
2018-05-13T02:02:06.859Z,14.96
2018-05-13T02:03:15.499Z,14.9
2018-05-13T02:04:24.411Z,14.94
2018-05-13T02:05:33.057Z,14.85
2018-05-13T02:06:41.707Z,14.89
2018-05-13T02:07:50.347Z,14.87
2018-05-13T02:08:58.995Z,14.87
2018-05-13T02:10:07.636Z,14.89
2018-05-13T02:11:16.290Z,14.89
2018-05-13T02:12:25.195Z,14.92
2018-05-13T02:13:33.844Z,14.92
2018-05-13T02:14:42.490Z,14.89
2018-05-13T02:15:51.405Z,14.71
2018-05-13T02:17:00.050Z,14.87
2018-05-13T02:18:08.699Z,14.74
2018-05-13T02:19:17.340Z,14.86
2018-05-13T02:20:25.982Z,14.85
2018-05-13T02:21:34.637Z,14.93
2018-05-13T02:22:43.284Z,14.68
2018-05-13T02:23:51.932Z,14.78
2018-05-13T02:25:00.575Z,14.81
2018-05-13T02:26:09.227Z,14.79
2018-05-13T02:27:17.868Z,14.79
2018-05-13T02:28:26.784Z,14.82
2018-05-13T02:29:35.419Z,14.7
2018-05-13T02:30:44.074Z,14.71
2018-05-13T02:31:53.001Z,14.73
2018-05-13T02:33:01.644Z,14.73
2018-05-13T02:34:10.551Z,14.73
2018-05-13T02:35:19.200Z,14.78
2018-05-13T02:36:27.852Z,14.71
2018-05-13T02:37:36.505Z,14.77
2018-05-13T02:38:45.419Z,14.68
2018-05-13T02:39:54.055Z,14.71
2018-05-13T02:41:02.709Z,14.7
2018-05-13T02:42:12.142Z,14.78
2018-05-13T02:43:20.797Z,14.78
2018-05-13T02:44:29.432Z,14.71
2018-05-13T02:45:38.350Z,14.79
2018-05-13T02:46:46.989Z,14.7
2018-05-13T02:47:55.913Z,14.71
2018-05-13T02:49:04.555Z,14.74
2018-05-13T02:50:13.204Z,14.77
2018-05-13T02:51:21.851Z,14.7
2018-05-13T02:52:30.508Z,14.73
2018-05-13T02:53:39.153Z,14.81
2018-05-13T02:54:48.062Z,14.73
2018-05-13T02:55:56.968Z,14.77
2018-05-13T02:57:05.892Z,14.74
2018-05-13T02:58:14.559Z,14.79
2018-05-13T02:59:23.200Z,14.74
2018-05-13T03:00:31.849Z,14.82
2018-05-13T03:01:40.489Z,14.74
2018-05-13T03:02:49.148Z,14.74
2018-05-13T03:03:57.797Z,14.78
2018-05-13T03:05:06.449Z,14.71
2018-05-13T03:06:15.096Z,14.73
2018-05-13T03:07:23.756Z,14.7
2018-05-13T03:08:32.397Z,14.63
2018-05-13T03:09:41.316Z,14.73
2018-05-13T03:10:50.224Z,14.63
2018-05-13T03:11:59.135Z,14.66
2018-05-13T03:13:08.063Z,14.73
2018-05-13T03:14:16.715Z,14.73
2018-05-13T03:15:25.369Z,14.77
2018-05-13T03:16:34.007Z,14.78
2018-05-13T03:17:42.938Z,14.9
2018-05-13T03:18:51.580Z,14.9
2018-05-13T03:20:00.237Z,14.92
2018-05-13T03:21:08.874Z,14.93
2018-05-13T03:22:17.525Z,14.99
2018-05-13T03:23:26.169Z,15
2018-05-13T03:24:34.812Z,15.14
2018-05-13T03:25:43.466Z,15.05
2018-05-13T03:26:52.111Z,15.15
2018-05-13T03:28:00.757Z,15.17
2018-05-13T03:29:09.395Z,15.17
2018-05-13T03:30:18.043Z,15.17
2018-05-13T03:31:26.702Z,15.18
2018-05-13T03:32:35.349Z,15.15
2018-05-13T03:33:43.996Z,15.17
2018-05-13T03:34:52.901Z,15.18
2018-05-13T03:36:01.550Z,15.12
2018-05-13T03:37:10.462Z,15.12
2018-05-13T03:38:19.117Z,15.18
2018-05-13T03:39:28.032Z,15.18
2018-05-13T03:40:36.680Z,15.19
2018-05-13T03:41:45.320Z,15.26
2018-05-13T03:42:53.979Z,15.18
2018-05-13T03:44:02.618Z,15.22
2018-05-13T03:45:11.263Z,15.27
2018-05-13T03:46:19.907Z,15.18
2018-05-13T03:47:28.560Z,15.32
2018-05-13T03:48:37.205Z,15.29
2018-05-13T03:49:45.847Z,15.27
2018-05-13T03:50:54.490Z,15.32
2018-05-13T03:52:03.134Z,15.33
2018-05-13T03:53:11.786Z,15.37
2018-05-13T03:54:20.428Z,15.36
2018-05-13T03:55:29.339Z,15.32
2018-05-13T03:56:37.981Z,15.44
2018-05-13T03:57:46.632Z,15.41
2018-05-13T03:58:55.540Z,15.43
2018-05-13T04:00:04.189Z,15.41
2018-05-13T04:01:12.824Z,15.41
2018-05-13T04:02:21.478Z,15.47
2018-05-13T04:03:30.121Z,15.41
2018-05-13T04:04:38.769Z,15.45
2018-05-13T04:05:47.409Z,15.41
2018-05-13T04:06:56.320Z,15.55
2018-05-13T04:08:04.975Z,15.47
2018-05-13T04:09:13.625Z,15.47
2018-05-13T04:10:22.278Z,15.6
2018-05-13T04:11:30.912Z,15.55
2018-05-13T04:12:39.562Z,15.51
2018-05-13T04:13:48.201Z,15.52
2018-05-13T04:14:56.855Z,15.52
2018-05-13T04:16:05.499Z,15.52
2018-05-13T04:17:14.411Z,15.54
2018-05-13T04:18:23.054Z,15.51
2018-05-13T04:19:31.707Z,15.54
2018-05-13T04:20:40.351Z,15.51
2018-05-13T04:21:49.261Z,15.6
2018-05-13T04:22:58.168Z,15.62
2018-05-13T04:24:06.820Z,15.62
2018-05-13T04:25:15.467Z,15.63
2018-05-13T04:26:24.115Z,15.6
2018-05-13T04:27:32.760Z,15.7
2018-05-13T04:28:41.404Z,15.7
2018-05-13T04:29:50.055Z,15.72
2018-05-13T04:30:58.969Z,15.73
2018-05-13T04:32:07.616Z,15.75
2018-05-13T04:33:16.258Z,15.78
2018-05-13T04:34:24.929Z,15.73
2018-05-13T04:35:33.830Z,15.78
2018-05-13T04:36:42.478Z,15.78
2018-05-13T04:37:51.123Z,15.81
2018-05-13T04:39:00.039Z,15.73
2018-05-13T04:40:08.951Z,15.84
2018-05-13T04:41:17.877Z,15.88
2018-05-13T04:42:26.519Z,15.88
2018-05-13T04:43:35.168Z,15.87
2018-05-13T04:44:44.158Z,15.9
2018-05-13T04:45:52.807Z,15.85
2018-05-13T04:47:01.454Z,15.87
2018-05-13T04:48:10.096Z,15.84
2018-05-13T04:49:18.746Z,15.84
2018-05-13T04:50:27.383Z,15.87
2018-05-13T04:51:36.033Z,15.84
2018-05-13T04:52:44.675Z,15.87
2018-05-13T04:53:53.321Z,15.73
2018-05-13T04:55:01.965Z,15.75
2018-05-13T04:56:10.618Z,15.8
2018-05-13T04:57:19.519Z,15.78
2018-05-13T04:58:28.169Z,15.76
2018-05-13T04:59:37.345Z,15.8
2018-05-13T05:00:45.998Z,15.76
2018-05-13T05:01:54.904Z,15.83
2018-05-13T05:03:03.549Z,15.85
2018-05-13T05:04:12.194Z,15.84
2018-05-13T05:05:20.835Z,15.83
2018-05-13T05:06:29.485Z,15.85
2018-05-13T05:07:38.129Z,15.88
2018-05-13T05:08:46.773Z,15.88
2018-05-13T05:09:55.415Z,15.85
2018-05-13T05:11:04.066Z,15.91
2018-05-13T05:12:12.718Z,15.88
2018-05-13T05:13:21.625Z,15.88
2018-05-13T05:14:30.265Z,15.85
2018-05-13T05:15:38.915Z,15.85
2018-05-13T05:16:47.824Z,15.85
2018-05-13T05:17:56.476Z,15.88
2018-05-13T05:19:05.118Z,15.91
2018-05-13T05:20:13.767Z,15.9
2018-05-13T05:21:22.412Z,15.91
2018-05-13T05:22:31.062Z,15.84
2018-05-13T05:23:39.709Z,15.9
2018-05-13T05:24:48.345Z,15.88
2018-05-13T05:25:56.996Z,15.88
2018-05-13T05:27:05.637Z,15.96
2018-05-13T05:28:14.292Z,15.99
2018-05-13T05:29:22.930Z,15.91
2018-05-13T05:30:31.577Z,16
2018-05-13T05:31:40.217Z,15.96
2018-05-13T05:32:49.141Z,16
2018-05-13T05:33:58.046Z,15.99
2018-05-13T05:35:06.694Z,15.98
2018-05-13T05:36:15.338Z,15.99
2018-05-13T05:37:24.000Z,15.98
2018-05-13T05:38:32.640Z,16.1
2018-05-13T05:39:41.281Z,16.17
2018-05-13T05:40:49.931Z,16.22
2018-05-13T05:41:58.842Z,16.13
2018-05-13T05:43:07.766Z,16.17
2018-05-13T05:44:16.405Z,16.21
2018-05-13T05:45:25.056Z,16.22
2018-05-13T05:46:33.691Z,16.17
2018-05-13T05:47:42.348Z,16.24
2018-05-13T05:48:50.988Z,16.25
2018-05-13T05:49:59.639Z,16.29
2018-05-13T05:51:08.282Z,16.32
2018-05-13T05:52:16.933Z,16.29
2018-05-13T05:53:25.582Z,16.41
2018-05-13T05:54:34.496Z,16.4
2018-05-13T05:55:43.140Z,16.4
2018-05-13T05:56:51.786Z,16.44
2018-05-13T05:58:00.438Z,16.43
2018-05-13T05:59:09.085Z,16.55
2018-05-13T06:00:17.734Z,16.57
2018-05-13T06:01:26.371Z,16.59
2018-05-13T06:02:35.024Z,16.54
2018-05-13T06:03:44.454Z,16.62
2018-05-13T06:04:53.110Z,16.72
2018-05-13T06:06:01.746Z,16.72
2018-05-13T06:07:10.398Z,16.79
2018-05-13T06:08:19.040Z,16.76
2018-05-13T06:09:27.695Z,16.84
2018-05-13T06:10:36.324Z,16.87
2018-05-13T06:11:44.976Z,16.95
2018-05-13T06:12:53.619Z,17.02
2018-05-13T06:14:02.359Z,17.16
2018-05-13T06:15:11.274Z,17.24
2018-05-13T06:16:20.193Z,17.3
2018-05-13T06:17:29.101Z,17.38
2018-05-13T06:18:37.745Z,17.44
2018-05-13T06:19:46.522Z,17.53
2018-05-13T06:20:55.313Z,17.56
2018-05-13T06:22:03.963Z,17.57
2018-05-13T06:23:12.605Z,17.66
2018-05-13T06:24:21.264Z,17.6
2018-05-13T06:25:29.904Z,17.63
2018-05-13T06:26:38.552Z,17.65
2018-05-13T06:27:47.199Z,17.59
2018-05-13T06:28:56.113Z,17.63
2018-05-13T06:30:05.018Z,17.54
2018-05-13T06:31:13.944Z,17.63
2018-05-13T06:32:22.587Z,17.54
2018-05-13T06:33:31.242Z,17.68
2018-05-13T06:34:39.889Z,17.59
2018-05-13T06:35:48.559Z,17.68
2018-05-13T06:36:57.466Z,17.66
2018-05-13T06:38:06.111Z,17.66
2018-05-13T06:39:15.023Z,17.71
2018-05-13T06:40:23.671Z,17.68
2018-05-13T06:41:32.323Z,17.72
2018-05-13T06:42:40.965Z,17.68
2018-05-13T06:43:49.612Z,17.68
2018-05-13T06:44:58.258Z,17.75
2018-05-13T06:46:07.179Z,17.75
2018-05-13T06:47:15.823Z,17.78
2018-05-13T06:48:24.473Z,17.78
2018-05-13T06:49:33.118Z,17.8
2018-05-13T06:50:41.772Z,17.82
2018-05-13T06:51:50.417Z,17.86
2018-05-13T06:52:59.328Z,17.88
2018-05-13T06:54:07.973Z,17.93
2018-05-13T06:55:16.617Z,18.03
2018-05-13T06:56:25.271Z,18.26
2018-05-13T06:57:34.182Z,18.23
2018-05-13T06:58:42.833Z,18.34
2018-05-13T06:59:51.746Z,18.45
2018-05-13T07:01:00.399Z,18.46
2018-05-13T07:02:09.049Z,18.41
2018-05-13T07:03:17.965Z,18.58
2018-05-13T07:04:26.686Z,18.52
2018-05-13T07:05:35.264Z,18.55
2018-05-13T07:06:43.911Z,18.68
2018-05-13T07:07:52.561Z,18.68
2018-05-13T07:09:01.210Z,18.66
2018-05-13T07:10:09.861Z,18.67
2018-05-13T07:11:18.509Z,18.57
2018-05-13T07:12:27.162Z,18.61
2018-05-13T07:13:35.813Z,18.52
2018-05-13T07:14:44.456Z,18.52
2018-05-13T07:15:53.109Z,18.52
2018-05-13T07:17:01.760Z,18.51
2018-05-13T07:18:10.415Z,18.51
2018-05-13T07:19:19.075Z,18.46
2018-05-13T07:20:27.980Z,18.48
2018-05-13T07:21:36.902Z,18.52
2018-05-13T07:22:45.548Z,18.52
2018-05-13T07:23:54.204Z,18.51
2018-05-13T07:25:02.851Z,18.49
2018-05-13T07:26:11.500Z,18.52
2018-05-13T07:27:20.144Z,18.55
2018-05-13T07:28:28.798Z,18.52
2018-05-13T07:29:37.454Z,18.66
2018-05-13T07:30:46.104Z,18.66
2018-05-13T07:31:55.022Z,18.78
2018-05-13T07:33:03.668Z,18.82
2018-05-13T07:34:12.317Z,18.83
2018-05-13T07:35:20.979Z,18.86
2018-05-13T07:36:29.618Z,18.78
2018-05-13T07:37:38.261Z,18.85
2018-05-13T07:38:47.181Z,18.82
2018-05-13T07:39:55.835Z,18.91
2018-05-13T07:41:04.485Z,18.81
2018-05-13T07:42:13.130Z,18.85
2018-05-13T07:43:21.799Z,18.91
2018-05-13T07:44:30.827Z,18.86
2018-05-13T07:45:39.485Z,18.86
2018-05-13T07:46:48.132Z,18.98
2018-05-13T07:47:57.042Z,19.11
2018-05-13T07:49:05.693Z,19.01
2018-05-13T07:50:14.339Z,19.07
2018-05-13T07:51:22.994Z,19.11
2018-05-13T07:52:31.905Z,19.17
2018-05-13T07:53:40.555Z,19.17
2018-05-13T07:54:49.199Z,19.17
2018-05-13T07:55:57.851Z,19.22
2018-05-13T07:57:06.767Z,19.29
2018-05-13T07:58:15.683Z,19.22
2018-05-13T07:59:24.327Z,19.34
2018-05-13T08:00:33.247Z,19.39
2018-05-13T08:01:41.899Z,19.44
2018-05-13T08:02:50.551Z,19.53
2018-05-13T08:03:59.197Z,19.49
2018-05-13T08:05:08.117Z,19.49
2018-05-13T08:06:16.937Z,19.63
2018-05-13T08:07:25.419Z,19.62
2018-05-13T08:08:34.070Z,19.72
2018-05-13T08:09:43.015Z,19.63
2018-05-13T08:10:51.929Z,19.7
2018-05-13T08:12:00.578Z,19.84
2018-05-13T08:13:09.236Z,19.81
2018-05-13T08:14:18.142Z,19.94
2018-05-13T08:15:26.792Z,19.94
2018-05-13T08:16:35.439Z,19.99
2018-05-13T08:17:44.095Z,20.12
2018-05-13T08:18:52.736Z,20.19
2018-05-13T08:20:01.392Z,20.24
2018-05-13T08:21:10.037Z,20.3
2018-05-13T08:22:18.696Z,20.37
2018-05-13T08:23:27.612Z,20.32
2018-05-13T08:24:36.259Z,20.37
2018-05-13T08:25:44.906Z,20.44
2018-05-13T08:26:53.557Z,20.4
2018-05-13T08:28:02.220Z,20.49
2018-05-13T08:29:10.857Z,20.49
2018-05-13T08:30:19.773Z,20.58
2018-05-13T08:31:28.413Z,20.55
2018-05-13T08:32:37.071Z,20.58
2018-05-13T08:33:45.984Z,20.58
2018-05-13T08:34:54.637Z,20.74
2018-05-13T08:36:03.282Z,20.77
2018-05-13T08:37:11.944Z,20.71
2018-05-13T08:38:20.592Z,20.73
2018-05-13T08:39:29.240Z,20.68
2018-05-13T08:40:37.884Z,20.71
2018-05-13T08:41:46.535Z,20.85
2018-05-13T08:42:55.192Z,20.8
2018-05-13T08:44:03.848Z,20.92
2018-05-13T08:45:12.502Z,20.89
2018-05-13T08:46:21.144Z,20.95
2018-05-13T08:47:29.798Z,21.04
2018-05-13T08:48:38.584Z,21.11
2018-05-13T08:49:47.107Z,21.08
2018-05-13T08:50:55.749Z,21.11
2018-05-13T08:52:04.405Z,21.1
2018-05-13T08:53:13.050Z,21.13
2018-05-13T08:54:21.710Z,21.14
2018-05-13T08:55:30.352Z,21.2
2018-05-13T08:56:39.005Z,21.23
2018-05-13T08:57:47.656Z,21.25
2018-05-13T08:58:56.580Z,21.2
2018-05-13T09:00:05.237Z,21.25
2018-05-13T09:01:14.137Z,21.19
2018-05-13T09:02:23.052Z,21.15
2018-05-13T09:03:32.224Z,21.14
2018-05-13T09:04:41.149Z,21.1
2018-05-13T09:05:49.795Z,21.14
2018-05-13T09:06:58.451Z,21.23
2018-05-13T09:08:07.093Z,21.26
2018-05-13T09:09:16.019Z,21.23
2018-05-13T09:10:24.664Z,21.38
2018-05-13T09:11:33.318Z,21.44
2018-05-13T09:12:41.962Z,21.48
2018-05-13T09:13:50.887Z,21.6
2018-05-13T09:14:59.808Z,21.59
2018-05-13T09:16:08.464Z,21.69
2018-05-13T09:17:17.107Z,21.74
2018-05-13T09:18:25.760Z,21.72
2018-05-13T09:19:34.418Z,21.8
2018-05-13T09:20:43.986Z,21.88
2018-05-13T09:21:52.558Z,21.85
2018-05-13T09:23:01.198Z,21.84
2018-05-13T09:24:09.852Z,21.91
2018-05-13T09:25:18.506Z,21.84
2018-05-13T09:26:27.184Z,21.89
2018-05-13T09:27:36.154Z,21.85
2018-05-13T09:28:45.074Z,21.92
2018-05-13T09:29:53.723Z,21.88
2018-05-13T09:31:02.384Z,21.84
2018-05-13T09:32:11.026Z,21.78
2018-05-13T09:33:19.681Z,21.92
2018-05-13T09:34:28.327Z,21.85
2018-05-13T09:35:36.988Z,21.85
2018-05-13T09:36:45.899Z,21.8
2018-05-13T09:37:54.817Z,21.84
2018-05-13T09:39:03.471Z,21.89
2018-05-13T09:40:12.392Z,22
2018-05-13T09:41:21.316Z,22.03
2018-05-13T09:42:29.964Z,22.14
2018-05-13T09:43:38.621Z,22.16
2018-05-13T09:44:47.262Z,22.15
2018-05-13T09:45:55.994Z,22.23
2018-05-13T09:47:04.840Z,22.19
2018-05-13T09:48:13.497Z,22.23
2018-05-13T09:49:22.139Z,22.21
2018-05-13T09:50:30.798Z,22.18
2018-05-13T09:51:39.443Z,22.21
2018-05-13T09:52:48.099Z,22.18
2018-05-13T09:53:56.740Z,22.21
2018-05-13T09:55:05.393Z,22.3
2018-05-13T09:56:14.048Z,22.28
2018-05-13T09:57:22.702Z,22.3
2018-05-13T09:58:31.356Z,22.38
2018-05-13T09:59:40.003Z,22.36
2018-05-13T10:00:48.655Z,22.36
2018-05-13T10:01:57.302Z,22.38
2018-05-13T10:03:06.226Z,22.34
2018-05-13T10:04:14.869Z,22.41
2018-05-13T10:05:23.524Z,22.43
2018-05-13T10:06:32.179Z,22.51
2018-05-13T10:07:40.914Z,22.47
2018-05-13T10:08:49.484Z,22.61
2018-05-13T10:09:58.138Z,22.62
2018-05-13T10:11:06.787Z,22.65
2018-05-13T10:12:15.446Z,22.58
2018-05-13T10:13:24.095Z,22.67
2018-05-13T10:14:32.745Z,22.73
2018-05-13T10:15:41.664Z,22.7
2018-05-13T10:16:50.312Z,22.76
2018-05-13T10:17:58.971Z,22.71
2018-05-13T10:19:07.623Z,22.73
2018-05-13T10:20:16.539Z,22.68
2018-05-13T10:21:25.188Z,22.73
2018-05-13T10:22:33.846Z,22.77
2018-05-13T10:23:42.499Z,22.83
2018-05-13T10:24:51.411Z,22.98
2018-05-13T10:26:00.058Z,22.96
2018-05-13T10:27:08.717Z,23.06
2018-05-13T10:28:17.363Z,23.1
2018-05-13T10:29:26.017Z,23.07
2018-05-13T10:30:34.669Z,23.07
2018-05-13T10:31:43.331Z,23.14
2018-05-13T10:32:51.978Z,23.17
2018-05-13T10:34:00.899Z,23.26
2018-05-13T10:35:09.553Z,23.2
2018-05-13T10:36:18.573Z,23.23
2018-05-13T10:37:27.137Z,23.25
2018-05-13T10:38:36.053Z,23.34
2018-05-13T10:39:44.711Z,23.37
2018-05-13T10:40:53.365Z,23.42
2018-05-13T10:42:02.017Z,23.42
2018-05-13T10:43:10.669Z,23.45
2018-05-13T10:44:19.329Z,23.45
2018-05-13T10:45:27.974Z,23.54
2018-05-13T10:46:36.628Z,23.49
2018-05-13T10:47:45.279Z,23.51
2018-05-13T10:48:53.936Z,23.52
2018-05-13T10:50:02.588Z,23.52
2018-05-13T10:51:11.238Z,23.42
2018-05-13T10:52:20.224Z,23.36
2018-05-13T10:53:28.873Z,23.37
2018-05-13T10:54:37.530Z,23.42
2018-05-13T10:55:46.193Z,23.42
2018-05-13T10:56:55.113Z,23.51
2018-05-13T10:58:03.763Z,23.63
2018-05-13T10:59:12.419Z,23.54
2018-05-13T11:00:21.072Z,23.54
2018-05-13T11:01:29.726Z,23.63
2018-05-13T11:02:38.380Z,23.69
2018-05-13T11:03:47.036Z,23.59
2018-05-13T11:04:55.686Z,23.63
2018-05-13T11:06:04.631Z,23.67
2018-05-13T11:07:13.257Z,23.74
2018-05-13T11:08:22.459Z,23.81
2018-05-13T11:09:31.110Z,23.85
2018-05-13T11:10:39.764Z,23.86
2018-05-13T11:11:48.419Z,23.86
2018-05-13T11:12:57.066Z,23.74
2018-05-13T11:14:05.722Z,23.84
2018-05-13T11:15:14.373Z,23.86
2018-05-13T11:16:23.023Z,23.99
2018-05-13T11:17:31.682Z,23.91
2018-05-13T11:18:40.335Z,23.92
2018-05-13T11:19:48.991Z,24.01
2018-05-13T11:20:57.640Z,23.91
2018-05-13T11:22:06.567Z,23.99
2018-05-13T11:23:15.217Z,23.96
2018-05-13T11:24:23.877Z,24.04
2018-05-13T11:25:32.523Z,24.03
2018-05-13T11:26:41.445Z,24.1
2018-05-13T11:27:50.100Z,24.09
2018-05-13T11:28:58.754Z,24.16
2018-05-13T11:30:07.417Z,24.14
2018-05-13T11:31:16.068Z,24.26
2018-05-13T11:32:24.718Z,24.34
2018-05-13T11:33:33.371Z,24.28
2018-05-13T11:34:42.031Z,24.32
2018-05-13T11:35:50.943Z,24.4
2018-05-13T11:36:59.596Z,24.43
2018-05-13T11:38:08.251Z,24.43
2018-05-13T11:39:16.906Z,24.5
2018-05-13T11:40:25.556Z,24.43
2018-05-13T11:41:34.220Z,24.58
2018-05-13T11:42:42.864Z,24.62
2018-05-13T11:43:51.792Z,24.5
2018-05-13T11:45:00.442Z,24.56
2018-05-13T11:46:09.097Z,24.55
2018-05-13T11:47:17.747Z,24.58
2018-05-13T11:48:26.660Z,24.55
2018-05-13T11:49:35.319Z,24.66
2018-05-13T11:50:44.241Z,24.68
2018-05-13T11:51:52.893Z,24.77
2018-05-13T11:53:01.541Z,24.86
2018-05-13T11:54:10.199Z,24.81
2018-05-13T11:55:18.859Z,24.92
2018-05-13T11:56:27.556Z,24.88
2018-05-13T11:57:36.151Z,24.99
2018-05-13T11:58:44.813Z,24.94
2018-05-13T11:59:53.462Z,24.96
2018-05-13T12:01:02.119Z,25
2018-05-13T12:02:10.856Z,25.04
2018-05-13T12:03:19.426Z,25.06
2018-05-13T12:04:28.079Z,25.03
2018-05-13T12:05:36.736Z,25.09
2018-05-13T12:06:45.392Z,25.12
2018-05-13T12:07:54.042Z,25.15
2018-05-13T12:09:02.696Z,25.12
2018-05-13T12:10:11.616Z,25.15
2018-05-13T12:11:20.273Z,25.07
2018-05-13T12:12:28.927Z,25.11
2018-05-13T12:13:37.853Z,25.04
2018-05-13T12:14:46.502Z,25.07
2018-05-13T12:15:55.165Z,25.09
2018-05-13T12:17:03.810Z,25.07
2018-05-13T12:18:12.725Z,25.18
2018-05-13T12:19:21.378Z,25.12
2018-05-13T12:20:30.041Z,25.15
2018-05-13T12:21:38.693Z,25.19
2018-05-13T12:22:47.607Z,25.15
2018-05-13T12:23:56.257Z,25.14
2018-05-13T12:25:04.907Z,25.16
2018-05-13T12:26:13.570Z,25.16
2018-05-13T12:27:22.218Z,25.24
2018-05-13T12:28:30.877Z,25.33
2018-05-13T12:29:39.520Z,25.49
2018-05-13T12:30:48.189Z,25.58
2018-05-13T12:31:57.369Z,25.66
2018-05-13T12:33:06.292Z,25.74
2018-05-13T12:34:14.933Z,25.96
2018-05-13T12:35:23.595Z,25.96
2018-05-13T12:36:32.251Z,26.08
2018-05-13T12:37:41.167Z,26.26
2018-05-13T12:38:49.813Z,26.36
2018-05-13T12:39:58.471Z,26.36
2018-05-13T12:41:07.144Z,26.39
2018-05-13T12:42:15.803Z,26.44
2018-05-13T12:43:24.461Z,26.41
2018-05-13T12:44:33.371Z,26.55
2018-05-13T12:45:42.030Z,26.31
2018-05-13T12:46:50.682Z,26.19
2018-05-13T12:47:59.347Z,25.78
2018-05-13T12:49:07.991Z,25.66
2018-05-13T12:50:16.654Z,25.62
2018-05-13T12:51:25.301Z,25.31
2018-05-13T12:52:33.964Z,25.21
2018-05-13T12:53:42.611Z,25.09
2018-05-13T12:54:51.270Z,24.96
2018-05-13T12:55:59.922Z,24.88
2018-05-13T12:57:08.586Z,24.68
2018-05-13T12:58:17.237Z,24.47
2018-05-13T12:59:25.890Z,24.32
2018-05-13T13:00:34.540Z,24.25
2018-05-13T13:01:43.193Z,24.03
2018-05-13T13:02:51.859Z,23.76
2018-05-13T13:04:00.775Z,23.66
2018-05-13T13:05:09.436Z,23.52
2018-05-13T13:06:18.129Z,23.26
2018-05-13T13:07:26.742Z,23.08
2018-05-13T13:08:35.392Z,22.98
2018-05-13T13:09:44.052Z,22.78
2018-05-13T13:10:52.695Z,22.67
2018-05-13T13:12:01.351Z,22.65
2018-05-13T13:13:10.003Z,22.52
2018-05-13T13:14:18.656Z,22.26
2018-05-13T13:15:27.301Z,21.96
2018-05-13T13:16:35.954Z,21.6
2018-05-13T13:17:44.606Z,21.03
2018-05-13T13:18:53.261Z,20.4
2018-05-13T13:20:01.984Z,19.96
2018-05-13T13:21:10.562Z,19.66
2018-05-13T13:22:19.210Z,19.29
2018-05-13T13:23:27.862Z,19.11
2018-05-13T13:24:36.515Z,18.88
2018-05-13T13:25:45.161Z,18.64
2018-05-13T13:26:53.808Z,18.53
2018-05-13T13:28:02.457Z,18.39
2018-05-13T13:29:11.113Z,18.23
2018-05-13T13:30:20.122Z,18.03
2018-05-13T13:31:29.041Z,17.9
2018-05-13T13:32:37.685Z,17.84
2018-05-13T13:33:46.345Z,17.75
2018-05-13T13:34:55.249Z,17.69
2018-05-13T13:36:03.897Z,17.72
2018-05-13T13:37:12.542Z,17.59
2018-05-13T13:38:21.448Z,17.49
2018-05-13T13:39:30.098Z,17.52
2018-05-13T13:40:38.747Z,17.49
2018-05-13T13:41:47.672Z,17.47
2018-05-13T13:42:56.308Z,17.47
2018-05-13T13:44:04.959Z,17.46
2018-05-13T13:45:13.604Z,17.42
2018-05-13T13:46:22.250Z,17.44
2018-05-13T13:47:30.893Z,17.32
2018-05-13T13:48:39.543Z,17.37
2018-05-13T13:49:48.189Z,17.37
2018-05-13T13:50:57.113Z,17.32
2018-05-13T13:52:05.756Z,17.47
2018-05-13T13:53:14.405Z,17.39
2018-05-13T13:54:23.052Z,17.53
2018-05-13T13:55:31.697Z,17.39
2018-05-13T13:56:40.345Z,17.54
2018-05-13T13:57:48.988Z,17.5
2018-05-13T13:58:57.637Z,17.54
2018-05-13T14:00:06.283Z,17.37
2018-05-13T14:01:14.935Z,17.39
2018-05-13T14:02:23.577Z,17.56
2018-05-13T14:03:32.229Z,17.44
2018-05-13T14:04:41.138Z,17.49
2018-05-13T14:05:49.789Z,17.46
2018-05-13T14:06:58.431Z,17.41
2018-05-13T14:08:07.080Z,17.39
2018-05-13T14:09:15.730Z,17.42
2018-05-13T14:10:24.381Z,17.32
2018-05-13T14:11:33.028Z,17.31
2018-05-13T14:12:41.671Z,17.31
2018-05-13T14:13:50.316Z,17.31
2018-05-13T14:14:58.957Z,17.22
2018-05-13T14:16:07.614Z,17.14
2018-05-13T14:17:16.261Z,17.05
2018-05-13T14:18:24.916Z,16.99
2018-05-13T14:19:33.823Z,17.02
2018-05-13T14:20:42.902Z,16.94
2018-05-13T14:21:51.395Z,16.87
2018-05-13T14:23:00.048Z,16.91
2018-05-13T14:24:08.950Z,16.84
2018-05-13T14:25:17.873Z,16.87
2018-05-13T14:26:26.518Z,16.77
2018-05-13T14:27:35.164Z,16.8
2018-05-13T14:28:43.806Z,16.68
2018-05-13T14:29:52.457Z,16.72
2018-05-13T14:31:01.109Z,16.74
2018-05-13T14:32:09.755Z,16.79
2018-05-13T14:33:18.403Z,16.68
2018-05-13T14:34:27.041Z,16.76
2018-05-13T14:35:35.692Z,16.74
2018-05-13T14:36:44.334Z,16.65
2018-05-13T14:37:53.088Z,16.65
2018-05-13T14:39:11.821Z,16.62
2018-05-13T14:40:19.088Z,16.69
2018-05-13T14:41:27.731Z,16.65
2018-05-13T14:42:36.388Z,16.76
2018-05-13T14:43:45.028Z,16.62
2018-05-13T14:44:53.680Z,16.57
2018-05-13T14:46:02.584Z,16.57
2018-05-13T14:47:11.240Z,16.58
2018-05-13T14:48:19.887Z,16.57